Scroll down
FLIGHT INFORMATION
American Airlines

AAL1481

At Arrival Gate

KMIA
 MDSD
DATE: 2021-04-11
GATE: B2
GATE DEPARTURE: 16:28
TAKEOFF: 16:41
DATE: 2021-04-11
GATE:  -
LANDING: 18:21
GATE ARRIVAL: 18:28
FLIGHT DATA
Crew: 
Speed: 
473 kts
Altitude: 
33,007 ft
Stage Length: 
737.4 nm
Block Time: 
1.9 hrs
Flight Time: 
1.7 hrs
Fuel Used: 
11,620 lb
Cleared Route: KMIA SKIPS BITAC RUMFO JUELE PTA PISOR KODIX MDSD
TRACK DATA
50,000 ft 1,000 kts
AIRCRAFT INFO AND CUMULATIVE STATS
Aircraft Type: 
B738BW
Registration: 
SELCAL: 
CKEF
MSN/LN: 
33228 / 4352
Operator: 
Total Flights: 
2
Total Block Time: 
2.5 hrs
Total Flight Time: 
2.1 hrs
Total Fuel Used: 
14,750 lb
DATALINK LOG | Newest first | Current as of: 2022-08-18 16:08:54
LABEL SEQUENCE CONTENT Dn/Up
QD552318:28 10.2▼ Dn
QC481818:21▼ Dn
2U3205MDSD 091800Z 23007KT 9999 FEW022 SCT080 29/23 Q1015▲ Up
2S5932MDSD▼ Dn
QB084616:41▼ Dn
QA553416:28 21.9▼ Dn
A34536CLEARED TO MDSD VIA SKIPS2 SKIPS Y290 BITAC Y396 RUMFO Y441 JUELE W38 PTA A554 KODIX KODI3H. SQUAWK 3156.▲ Up
Q04427[LINK ACK]▲ Up
Q04426[LINK TEST]▼ Dn


AIRCRAFT HISTORY
FLIGHT DATE FLIGHT NO. ORIGIN DESTINATION CLEARED ROUTE BLOCK TIME FLIGHT TIME FUEL USED PILOT
2021-04-11AAL1481KMIA MDSD KMIA SKIPS BITAC RUMFO JUELE PTA PISOR KODIX MDSD1.9 hrs1.7 hrs11,620 lbMike Dryden
2020-10-09AAL9500KEYW KMIA KEYW COPRA RW08R0.6 hrs0.4 hrs3,130 lbMichael Collier